Time;durP1;ratioP1;P1;durP2;ratioP2;P2;SDS_P1;SDS_P2;PMS_P1;PMS_P2;Temp;Humidity;BMP_temperature;BMP_pressure;BME280_temperature;BME280_humidity;BME280_pressure;Samples;Min_cycle;Max_cycle;Signal;HPM_P1;HPM_P2
2021/09/22 00:00:56;;;;;;;5.40;3.47;;;13.10;99.90;;;;;;5012307;28;20030;-55
2021/09/22 00:03:21;;;;;;;7.72;4.15;;;13.10;99.90;;;;;;5013423;28;20053;-56
2021/09/22 00:05:46;;;;;;;8.48;3.70;;;13.00;99.90;;;;;;5013192;28;20057;-53
2021/09/22 00:08:12;;;;;;;7.03;3.78;;;13.00;99.90;;;;;;5013185;28;20038;-56
2021/09/22 00:10:38;;;;;;;6.93;3.40;;;12.90;99.90;;;;;;5015805;28;20037;-54
2021/09/22 00:13:03;;;;;;;11.23;4.32;;;12.90;99.90;;;;;;5033003;28;20029;-58
2021/09/22 00:15:29;;;;;;;8.32;3.03;;;12.80;99.90;;;;;;5014727;28;20030;-54
2021/09/22 00:17:54;;;;;;;11.88;3.10;;;12.70;99.90;;;;;;5013152;28;20029;-53
2021/09/22 00:20:25;;;;;;;7.20;2.85;;;12.60;99.90;;;;;;5012912;28;20057;-51
2021/09/22 00:22:55;;;;;;;8.13;2.97;;;12.60;99.90;;;;;;5013091;28;20029;-54
2021/09/22 00:25:21;;;;;;;7.53;2.35;;;12.50;99.90;;;;;;5012972;28;20080;-52
2021/09/22 00:27:46;;;;;;;8.52;3.50;;;12.40;99.90;;;;;;5013073;28;20017;-53
2021/09/22 00:30:12;;;;;;;7.05;2.47;;;12.40;99.90;;;;;;5012611;28;20049;-54
2021/09/22 00:32:38;;;;;;;5.43;2.40;;;12.30;99.90;;;;;;5012136;28;20042;-55
2021/09/22 00:35:05;;;;;;;8.70;2.75;;;12.30;99.90;;;;;;5012911;28;20022;-57
2021/09/22 00:37:30;;;;;;;7.10;2.10;;;12.20;99.90;;;;;;5012783;28;20026;-57
2021/09/22 00:39:56;;;;;;;7.97;2.58;;;12.20;99.90;;;;;;5012785;28;20050;-55
2021/09/22 00:42:22;;;;;;;9.15;2.65;;;12.10;99.90;;;;;;5012806;28;20030;-51
2021/09/22 00:44:56;;;;;;;7.47;2.10;;;12.10;99.90;;;;;;5012669;28;20033;-54
2021/09/22 00:47:25;;;;;;;7.70;2.20;;;12.00;99.90;;;;;;5011894;28;20032;-54
2021/09/22 00:49:52;;;;;;;7.22;2.10;;;11.90;99.90;;;;;;5012633;28;20165;-52
2021/09/22 00:52:19;;;;;;;4.45;2.10;;;11.90;99.90;;;;;;5012556;28;20022;-54
2021/09/22 00:54:45;;;;;;;6.95;2.35;;;11.90;99.90;;;;;;5012601;28;20053;-55
2021/09/22 00:57:11;;;;;;;10.13;3.20;;;11.80;99.90;;;;;;5012655;28;20473;-55
2021/09/22 00:59:37;;;;;;;6.47;2.20;;;11.80;99.90;;;;;;5015118;28;20499;-52
2021/09/22 01:02:04;;;;;;;5.80;2.00;;;11.90;99.90;;;;;;5031400;28;20118;-51
2021/09/22 01:04:30;;;;;;;5.65;2.13;;;11.90;99.90;;;;;;5032138;28;20029;-56
2021/09/22 01:06:56;;;;;;;6.00;2.45;;;11.90;99.90;;;;;;5032192;28;20058;-53
2021/09/22 01:09:21;;;;;;;10.35;2.35;;;11.90;99.90;;;;;;5032259;28;20534;-49
2021/09/22 01:11:47;;;;;;;9.48;3.00;;;11.90;99.90;;;;;;5020390;28;20052;-55
2021/09/22 01:14:13;;;;;;;6.93;2.10;;;11.90;99.90;;;;;;5019159;28;20021;-55
2021/09/22 01:16:43;;;;;;;6.40;2.50;;;11.90;99.90;;;;;;5031195;28;20021;-55
2021/09/22 01:19:08;;;;;;;11.52;2.63;;;11.90;99.90;;;;;;5032181;28;20032;-54
2021/09/22 01:21:34;;;;;;;8.88;2.58;;;11.90;99.90;;;;;;5032116;28;20380;-52
2021/09/22 01:23:59;;;;;;;7.35;2.58;;;12.00;99.90;;;;;;5032101;28;20030;-49
2021/09/22 01:26:25;;;;;;;8.65;2.53;;;11.90;99.90;;;;;;5031789;28;20029;-50
2021/09/22 01:28:51;;;;;;;10.35;3.22;;;12.00;99.90;;;;;;5032075;28;20028;-50
2021/09/22 01:31:17;;;;;;;10.10;2.70;;;11.90;99.90;;;;;;5033978;28;20025;-52
2021/09/22 01:33:43;;;;;;;6.75;2.85;;;11.90;99.90;;;;;;5036036;28;20501;-54
2021/09/22 01:36:14;;;;;;;9.32;2.60;;;11.90;99.90;;;;;;5035826;28;20522;-49
2021/09/22 01:38:39;;;;;;;6.90;2.92;;;11.80;99.90;;;;;;5035465;28;20488;-53
2021/09/22 01:41:07;;;;;;;9.75;2.63;;;11.80;99.90;;;;;;5035588;28;20037;-52
2021/09/22 01:43:35;;;;;;;4.40;2.08;;;11.70;99.90;;;;;;5035662;28;20033;-52
2021/09/22 01:46:02;;;;;;;9.75;3.42;;;11.80;99.90;;;;;;5034952;28;20014;-52
2021/09/22 01:48:28;;;;;;;12.52;3.42;;;11.70;99.90;;;;;;5035036;28;20468;-53
2021/09/22 01:50:55;;;;;;;7.30;2.63;;;11.70;99.90;;;;;;5035486;28;20072;-52
2021/09/22 01:53:21;;;;;;;12.02;3.15;;;11.80;99.90;;;;;;5035369;28;20032;-51
2021/09/22 01:55:47;;;;;;;8.20;3.03;;;11.70;99.90;;;;;;5035111;28;20101;-52
2021/09/22 01:58:13;;;;;;;10.27;3.05;;;11.70;99.90;;;;;;5035557;28;20309;-51
2021/09/22 02:00:39;;;;;;;9.70;3.45;;;11.70;99.90;;;;;;5034339;28;20029;-47
2021/09/22 02:03:04;;;;;;;11.63;3.47;;;11.70;99.90;;;;;;5035434;28;20029;-50
2021/09/22 02:05:30;;;;;;;13.55;3.22;;;11.70;99.90;;;;;;5035216;28;20050;-51
2021/09/22 02:07:55;;;;;;;13.27;4.20;;;11.60;99.90;;;;;;5035311;28;20037;-52
2021/09/22 02:10:21;;;;;;;8.38;3.47;;;11.70;99.90;;;;;;5034226;28;20030;-54
2021/09/22 02:12:47;;;;;;;12.02;2.67;;;11.70;99.90;;;;;;5033245;28;20201;-50
2021/09/22 02:15:12;;;;;;;10.93;3.47;;;11.80;99.90;;;;;;5020154;28;20377;-51
2021/09/22 02:17:38;;;;;;;12.98;3.20;;;11.90;99.90;;;;;;5014401;28;20100;-51
2021/09/22 02:20:04;;;;;;;12.77;3.38;;;12.00;99.90;;;;;;5015228;28;20485;-49
2021/09/22 02:22:30;;;;;;;12.00;3.05;;;12.00;99.90;;;;;;5015257;28;20041;-53
2021/09/22 02:24:55;;;;;;;12.48;3.40;;;12.00;99.90;;;;;;5014848;28;20397;-51
2021/09/22 02:27:21;;;;;;;11.80;3.45;;;12.10;99.90;;;;;;5015194;28;20029;-49
2021/09/22 02:29:47;;;;;;;10.70;3.20;;;12.10;99.90;;;;;;5015104;28;20041;-52
2021/09/22 02:32:13;;;;;;;12.27;3.28;;;12.10;99.90;;;;;;5014120;28;20120;-52
2021/09/22 02:34:39;;;;;;;14.77;3.83;;;12.10;99.90;;;;;;5014954;28;20037;-50
2021/09/22 02:37:05;;;;;;;10.00;2.78;;;12.10;99.90;;;;;;5014910;28;20065;-50
2021/09/22 02:39:31;;;;;;;17.60;4.55;;;12.00;99.90;;;;;;5014749;28;20501;-51
2021/09/22 02:41:57;;;;;;;14.65;4.03;;;12.00;99.90;;;;;;5013609;28;20111;-50
2021/09/22 02:44:23;;;;;;;13.82;3.60;;;12.00;99.90;;;;;;5014899;28;20115;-50
2021/09/22 02:46:49;;;;;;;9.70;3.45;;;11.90;99.90;;;;;;5013867;28;20026;-49
2021/09/22 02:49:15;;;;;;;17.42;4.13;;;11.90;99.90;;;;;;5014758;28;20026;-50
2021/09/22 02:51:40;;;;;;;10.75;3.80;;;11.90;99.90;;;;;;5014569;28;20045;-51
2021/09/22 02:54:06;;;;;;;9.10;3.15;;;11.90;99.90;;;;;;5013360;28;20037;-53
2021/09/22 02:56:31;;;;;;;10.80;2.65;;;11.90;99.90;;;;;;5014272;28;20022;-52
2021/09/22 02:58:57;;;;;;;18.48;3.05;;;11.80;99.90;;;;;;5014665;28;20221;-52
2021/09/22 03:01:22;;;;;;;14.82;3.75;;;11.80;99.90;;;;;;5013549;28;20030;-54
2021/09/22 03:03:48;;;;;;;15.63;2.95;;;11.80;99.90;;;;;;5014685;28;20029;-49
2021/09/22 03:06:13;;;;;;;17.63;3.88;;;11.70;99.90;;;;;;5014277;28;20501;-51
2021/09/22 03:08:39;;;;;;;16.92;3.85;;;11.70;99.90;;;;;;5014196;28;20030;-48
2021/09/22 03:11:09;;;;;;;17.55;4.35;;;11.70;99.90;;;;;;5020685;28;20017;-49
2021/09/22 03:13:35;;;;;;;14.68;3.70;;;11.70;99.90;;;;;;5032392;28;20461;-51
2021/09/22 03:16:02;;;;;;;13.20;3.63;;;11.70;99.90;;;;;;5013292;28;20018;-51
2021/09/22 03:18:28;;;;;;;11.00;2.58;;;11.70;99.90;;;;;;5014226;28;20018;-52
2021/09/22 03:20:53;;;;;;;11.85;3.38;;;11.80;99.90;;;;;;5012905;28;20028;-51
2021/09/22 03:23:19;;;;;;;15.70;3.65;;;11.80;99.90;;;;;;5013982;28;20524;-53
2021/09/22 03:25:45;;;;;;;11.60;2.83;;;11.90;99.90;;;;;;5013896;28;20061;-50
2021/09/22 03:28:11;;;;;;;11.60;2.90;;;11.90;99.90;;;;;;5014133;28;20036;-52
2021/09/22 03:30:37;;;;;;;12.52;3.10;;;11.90;99.90;;;;;;5012838;28;20032;-54
2021/09/22 03:33:02;;;;;;;10.77;3.58;;;12.00;99.90;;;;;;5014008;28;20105;-48
2021/09/22 03:35:28;;;;;;;11.57;3.08;;;12.00;99.90;;;;;;5013705;28;20025;-50
2021/09/22 03:37:53;;;;;;;15.40;3.20;;;12.10;99.90;;;;;;5013806;28;20073;-51
2021/09/22 03:40:19;;;;;;;11.65;3.35;;;12.10;99.90;;;;;;5013870;28;20030;-51
2021/09/22 03:42:44;;;;;;;14.52;3.20;;;12.10;99.90;;;;;;5013508;28;20026;-49
2021/09/22 03:45:10;;;;;;;9.07;3.10;;;12.10;99.90;;;;;;5013788;28;20363;-50
2021/09/22 03:47:36;;;;;;;12.43;2.58;;;12.10;99.90;;;;;;5012672;28;20034;-53
2021/09/22 03:50:02;;;;;;;10.00;2.50;;;12.10;99.90;;;;;;5013639;28;20087;-55
2021/09/22 03:52:28;;;;;;;13.10;3.13;;;12.10;99.90;;;;;;5013014;28;20439;-54
2021/09/22 03:54:53;;;;;;;12.60;3.45;;;12.10;99.90;;;;;;5013558;28;20057;-55
2021/09/22 03:57:19;;;;;;;9.48;2.72;;;12.10;99.90;;;;;;5013344;28;20101;-50
2021/09/22 03:59:44;;;;;;;8.70;2.67;;;12.20;99.90;;;;;;5013289;28;20026;-49
2021/09/22 04:02:10;;;;;;;14.43;3.20;;;12.20;99.90;;;;;;5025076;28;20022;-53
2021/09/22 04:04:36;;;;;;;14.25;2.65;;;12.20;99.90;;;;;;5032999;28;20041;-53
2021/09/22 04:07:01;;;;;;;9.80;2.58;;;12.20;99.90;;;;;;5032673;28;20042;-55
2021/09/22 04:09:27;;;;;;;8.57;2.33;;;12.30;99.90;;;;;;5032840;28;20087;-52
2021/09/22 04:11:52;;;;;;;14.32;2.88;;;12.30;99.90;;;;;;5022280;28;20026;-50
2021/09/22 04:14:18;;;;;;;8.02;2.20;;;12.30;99.90;;;;;;5020743;28;20025;-51
2021/09/22 04:16:44;;;;;;;11.80;2.85;;;12.30;99.90;;;;;;5031841;28;20097;-53
2021/09/22 04:19:09;;;;;;;13.70;2.88;;;12.30;99.90;;;;;;5032889;28;20056;-52
2021/09/22 04:21:35;;;;;;;13.98;2.90;;;12.30;99.90;;;;;;5032462;28;20452;-50
2021/09/22 04:24:01;;;;;;;13.20;3.35;;;12.30;99.90;;;;;;5032843;28;20473;-52
2021/09/22 04:26:26;;;;;;;12.80;2.95;;;12.30;99.90;;;;;;5032698;28;20476;-55
2021/09/22 04:28:52;;;;;;;17.08;2.90;;;12.30;99.90;;;;;;5032490;28;20544;-54
2021/09/22 04:31:18;;;;;;;16.17;2.72;;;12.30;99.90;;;;;;5031420;28;20022;-53
2021/09/22 04:33:43;;;;;;;15.60;2.88;;;12.30;99.90;;;;;;5032650;28;20041;-53
2021/09/22 04:36:09;;;;;;;16.17;3.58;;;12.30;99.90;;;;;;5032606;28;20022;-51
2021/09/22 04:38:35;;;;;;;20.00;3.42;;;12.30;99.90;;;;;;5032702;28;20021;-51
2021/09/22 04:41:01;;;;;;;12.20;2.72;;;12.30;99.90;;;;;;5028998;28;20052;-54
2021/09/22 04:43:27;;;;;;;11.88;2.83;;;12.30;99.90;;;;;;5032191;28;20104;-52
2021/09/22 04:45:53;;;;;;;16.45;3.22;;;12.30;99.90;;;;;;5031061;28;20033;-54
2021/09/22 04:48:18;;;;;;;15.02;3.30;;;12.30;99.90;;;;;;5032399;28;20085;-54
2021/09/22 04:50:44;;;;;;;13.10;3.10;;;12.40;99.90;;;;;;5031863;28;20101;-54
2021/09/22 04:53:09;;;;;;;15.30;2.38;;;12.40;99.90;;;;;;5032192;28;20029;-52
2021/09/22 04:55:35;;;;;;;12.20;3.10;;;12.40;99.90;;;;;;5032152;28;20033;-54
2021/09/22 04:58:00;;;;;;;18.80;2.72;;;12.40;99.90;;;;;;5032128;28;20037;-53
2021/09/22 05:00:26;;;;;;;13.05;2.97;;;12.40;99.90;;;;;;5030962;28;20101;-56
2021/09/22 05:02:51;;;;;;;20.17;4.22;;;12.50;99.90;;;;;;5031942;28;20026;-54
2021/09/22 05:05:17;;;;;;;13.60;3.50;;;12.50;99.90;;;;;;5033318;28;20049;-53
2021/09/22 05:07:42;;;;;;;16.90;3.38;;;12.50;99.90;;;;;;5034770;28;20522;-54
2021/09/22 05:10:09;;;;;;;16.33;2.70;;;12.50;99.90;;;;;;5036171;28;20362;-54
2021/09/22 05:12:34;;;;;;;17.65;3.55;;;12.60;99.90;;;;;;5019907;28;20524;-50
2021/09/22 05:15:02;;;;;;;9.45;2.55;;;12.60;99.90;;;;;;5029354;28;20021;-56
2021/09/22 05:17:27;;;;;;;9.23;2.40;;;12.60;99.90;;;;;;5035242;28;20380;-51
2021/09/22 05:19:53;;;;;;;8.43;2.22;;;12.60;99.90;;;;;;5036014;28;20037;-51
2021/09/22 05:22:18;;;;;;;11.32;2.25;;;12.70;99.90;;;;;;5035931;28;20044;-54
2021/09/22 05:24:45;;;;;;;13.43;2.65;;;12.70;99.90;;;;;;5035947;28;20461;-54
2021/09/22 05:27:11;;;;;;;11.23;3.25;;;12.80;99.90;;;;;;5036034;28;20040;-56
2021/09/22 05:29:37;;;;;;;13.23;2.30;;;12.80;99.90;;;;;;5035759;28;20068;-50
2021/09/22 05:32:03;;;;;;;10.93;2.65;;;12.90;99.90;;;;;;5034616;28;20029;-55
2021/09/22 05:34:29;;;;;;;16.70;3.75;;;12.90;99.90;;;;;;5035822;28;20449;-51
2021/09/22 05:36:54;;;;;;;29.08;3.88;;;12.90;99.90;;;;;;5035611;28;20028;-53
2021/09/22 05:39:20;;;;;;;12.75;3.00;;;13.00;99.90;;;;;;5035916;28;20041;-51
2021/09/22 05:41:45;;;;;;;19.73;3.40;;;13.00;99.90;;;;;;5035620;28;20070;-54
2021/09/22 05:44:11;;;;;;;14.13;3.08;;;13.00;99.90;;;;;;5035591;28;20053;-52
2021/09/22 05:46:36;;;;;;;16.98;3.20;;;13.10;99.90;;;;;;5034369;28;20147;-54
2021/09/22 05:49:03;;;;;;;21.67;3.70;;;13.10;99.90;;;;;;5035498;28;20033;-53
2021/09/22 05:51:29;;;;;;;15.98;3.53;;;13.10;99.90;;;;;;5035648;28;20028;-53
2021/09/22 05:53:55;;;;;;;10.80;3.20;;;13.20;99.90;;;;;;5035303;28;20044;-53
2021/09/22 05:56:21;;;;;;;12.82;3.75;;;13.20;99.90;;;;;;5034256;28;20043;-51
2021/09/22 05:58:46;;;;;;;12.43;2.88;;;13.30;99.90;;;;;;5035363;28;20034;-52
2021/09/22 06:01:12;;;;;;;15.48;2.85;;;13.20;99.90;;;;;;5034070;28;20528;-51
2021/09/22 06:03:37;;;;;;;18.25;3.65;;;13.20;99.90;;;;;;5035009;28;20047;-54
2021/09/22 06:06:03;;;;;;;13.35;3.67;;;13.30;99.90;;;;;;5009725;28;20049;-54
2021/09/22 06:08:28;;;;;;;8.38;1.85;;;13.20;99.90;;;;;;5003187;28;20416;-54
2021/09/22 06:10:54;;;;;;;18.17;3.00;;;13.30;99.90;;;;;;5032441;28;20117;-54
2021/09/22 06:13:20;;;;;;;10.10;2.78;;;13.30;99.90;;;;;;5035216;28;20029;-51
2021/09/22 06:15:46;;;;;;;9.82;2.47;;;13.30;99.90;;;;;;5014316;28;20029;-55
2021/09/22 06:18:11;;;;;;;12.95;2.58;;;13.40;99.90;;;;;;5015342;28;20029;-55
2021/09/22 06:20:37;;;;;;;10.35;2.72;;;13.40;99.90;;;;;;5015099;28;20108;-53
2021/09/22 06:23:03;;;;;;;8.63;2.40;;;13.50;99.90;;;;;;5015079;28;20109;-53
2021/09/22 06:25:28;;;;;;;10.18;2.35;;;13.60;99.90;;;;;;5015352;28;20049;-52
2021/09/22 06:27:54;;;;;;;10.40;2.15;;;13.60;99.90;;;;;;5013872;28;20026;-51
2021/09/22 06:30:20;;;;;;;8.43;2.17;;;13.70;99.90;;;;;;5014078;28;20022;-53
2021/09/22 06:32:45;;;;;;;8.55;2.28;;;13.70;99.90;;;;;;5014958;28;20112;-54
2021/09/22 06:35:12;;;;;;;15.38;3.55;;;13.70;99.90;;;;;;5014905;28;20018;-54
2021/09/22 06:37:38;;;;;;;15.82;2.65;;;13.70;99.90;;;;;;5014980;28;20026;-53
2021/09/22 06:40:05;;;;;;;15.80;3.20;;;13.80;99.90;;;;;;5014955;28;20048;-55
2021/09/22 06:42:31;;;;;;;13.73;2.72;;;13.80;99.90;;;;;;5014600;28;20454;-52
2021/09/22 06:44:56;;;;;;;12.18;2.13;;;13.90;99.90;;;;;;5014622;28;20108;-50
2021/09/22 06:47:22;;;;;;;10.65;2.58;;;13.90;99.90;;;;;;5013825;28;20038;-51
2021/09/22 06:49:48;;;;;;;8.68;2.10;;;14.00;99.90;;;;;;5014544;28;20033;-53
2021/09/22 06:52:13;;;;;;;15.45;3.05;;;14.00;99.90;;;;;;5013395;28;20458;-52
2021/09/22 06:54:39;;;;;;;14.63;2.83;;;14.10;99.90;;;;;;5014653;28;20041;-54
2021/09/22 06:57:04;;;;;;;13.60;2.80;;;14.10;99.90;;;;;;5014707;28;20042;-52
2021/09/22 06:59:30;;;;;;;8.52;2.10;;;14.20;99.90;;;;;;5014496;28;20034;-49
2021/09/22 07:01:55;;;;;;;11.95;2.42;;;14.20;99.90;;;;;;5013507;28;20033;-53
2021/09/22 07:04:21;;;;;;;10.30;3.13;;;14.20;99.90;;;;;;5014291;28;20453;-54
2021/09/22 07:06:46;;;;;;;10.93;2.47;;;14.20;99.90;;;;;;5014277;28;20041;-51
2021/09/22 07:09:12;;;;;;;13.75;2.78;;;14.20;99.90;;;;;;5014317;28;20492;-55
2021/09/22 07:11:37;;;;;;;11.65;2.67;;;14.20;99.90;;;;;;5025268;28;20017;-52
2021/09/22 07:14:04;;;;;;;17.85;3.17;;;14.20;99.90;;;;;;5028358;28;20052;-50
2021/09/22 07:16:29;;;;;;;14.95;2.72;;;14.20;99.90;;;;;;5013269;28;20026;-53
2021/09/22 07:18:56;;;;;;;8.40;2.90;;;14.20;99.90;;;;;;5013868;28;20026;-55
2021/09/22 07:21:22;;;;;;;11.98;3.38;;;14.20;99.90;;;;;;5014205;28;20140;-53
2021/09/22 07:23:48;;;;;;;12.40;2.40;;;14.20;99.90;;;;;;5014074;28;20122;-51
2021/09/22 07:26:13;;;;;;;5.93;2.25;;;14.20;99.90;;;;;;5014072;28;20026;-56
2021/09/22 07:28:39;;;;;;;10.35;2.83;;;14.30;99.90;;;;;;5013464;28;20049;-53
2021/09/22 07:31:04;;;;;;;17.90;3.22;;;14.40;99.90;;;;;;5012705;28;20030;-51
2021/09/22 07:33:30;;;;;;;8.35;2.50;;;14.40;99.90;;;;;;5013849;28;20072;-53
2021/09/22 07:35:56;;;;;;;17.33;3.72;;;14.50;99.90;;;;;;5013904;28;20029;-53
2021/09/22 07:38:22;;;;;;;12.90;2.80;;;14.50;99.90;;;;;;5013965;28;20033;-52
2021/09/22 07:40:48;;;;;;;10.75;3.08;;;14.50;99.90;;;;;;5013903;28;20045;-53
2021/09/22 07:43:14;;;;;;;9.75;2.30;;;14.50;99.90;;;;;;5013704;28;20113;-55
2021/09/22 07:45:39;;;;;;;15.15;3.00;;;14.60;99.90;;;;;;5012886;28;20084;-51
2021/09/22 07:48:05;;;;;;;15.43;2.70;;;14.60;99.90;;;;;;5013319;28;20095;-51
2021/09/22 07:50:31;;;;;;;20.13;3.38;;;14.60;99.90;;;;;;5013706;28;20417;-52
2021/09/22 07:52:57;;;;;;;13.70;3.00;;;14.70;99.90;;;;;;5013467;28;20026;-54
2021/09/22 07:55:23;;;;;;;11.75;2.67;;;14.60;99.90;;;;;;5013547;28;20034;-51
2021/09/22 07:57:52;;;;;;;10.77;2.45;;;14.70;99.90;;;;;;5013428;28;20022;-52
2021/09/22 08:00:18;;;;;;;11.07;2.80;;;14.80;99.90;;;;;;5012552;28;20462;-53
2021/09/22 08:02:44;;;;;;;10.68;2.38;;;14.80;99.90;;;;;;5013168;28;20038;-50
2021/09/22 08:05:10;;;;;;;10.90;3.05;;;14.80;99.90;;;;;;5013097;28;20076;-54
2021/09/22 08:07:36;;;;;;;10.13;2.65;;;14.80;99.90;;;;;;5013413;28;20052;-56
2021/09/22 08:10:02;;;;;;;17.08;2.67;;;14.90;99.90;;;;;;5013134;28;20022;-47
2021/09/22 08:12:27;;;;;;;11.57;2.53;;;14.90;99.90;;;;;;5013484;28;20025;-51
2021/09/22 08:14:53;;;;;;;12.48;2.92;;;15.00;99.90;;;;;;5020546;28;20022;-52
2021/09/22 08:17:20;;;;;;;15.68;3.17;;;15.00;99.90;;;;;;5012070;28;20072;-54
2021/09/22 08:19:45;;;;;;;14.35;3.08;;;15.00;99.90;;;;;;5013099;28;20049;-51
2021/09/22 08:22:11;;;;;;;14.45;3.47;;;15.00;99.90;;;;;;5013133;28;20053;-53
2021/09/22 08:24:37;;;;;;;10.82;2.75;;;15.00;99.90;;;;;;5013041;28;20022;-51
2021/09/22 08:27:04;;;;;;;9.00;2.67;;;15.10;99.90;;;;;;5013094;28;20026;-54
2021/09/22 08:29:31;;;;;;;14.02;2.65;;;15.10;99.90;;;;;;5009713;28;20022;-52
2021/09/22 08:31:57;;;;;;;13.27;2.42;;;15.20;99.90;;;;;;5011909;28;20463;-52
2021/09/22 08:34:23;;;;;;;10.05;2.33;;;15.30;99.90;;;;;;5012820;28;20117;-51
2021/09/22 08:36:48;;;;;;;18.02;3.50;;;15.30;99.90;;;;;;5012987;28;20052;-52
2021/09/22 08:39:15;;;;;;;10.18;2.60;;;15.40;99.90;;;;;;5012043;28;20026;-54
2021/09/22 08:41:41;;;;;;;10.02;2.10;;;15.40;99.90;;;;;;5012808;28;20026;-53
2021/09/22 08:44:09;;;;;;;12.57;2.92;;;15.50;99.90;;;;;;5012696;28;20022;-52
2021/09/22 08:46:38;;;;;;;12.30;2.70;;;15.50;99.90;;;;;;5011621;28;20022;-54
2021/09/22 08:49:04;;;;;;;20.88;3.70;;;15.50;99.90;;;;;;5012485;28;20022;-53
2021/09/22 08:51:30;;;;;;;9.85;3.28;;;15.50;99.90;;;;;;5012806;28;20101;-50
2021/09/22 08:53:57;;;;;;;11.68;3.08;;;15.50;99.90;;;;;;5012740;28;20083;-52
2021/09/22 08:56:24;;;;;;;13.95;4.13;;;15.40;99.90;;;;;;5012634;28;20025;-53
2021/09/22 08:58:53;;;;;;;10.43;3.20;;;15.50;99.90;;;;;;5012647;28;20026;-54
2021/09/22 09:01:20;;;;;;;19.02;4.10;;;15.50;99.90;;;;;;5010415;28;20030;-55
2021/09/22 09:03:49;;;;;;;16.73;2.90;;;15.50;99.90;;;;;;5012595;28;20034;-54
2021/09/22 09:06:37;;;;;;;12.55;2.30;;;15.50;99.90;;;;;;5012523;28;20054;-56
2021/09/22 09:09:04;;;;;;;12.80;2.83;;;15.50;99.90;;;;;;5012424;28;20026;-54
2021/09/22 09:11:35;;;;;;;12.30;2.60;;;15.60;99.90;;;;;;5022402;28;20393;-56
2021/09/22 09:14:05;;;;;;;14.85;2.92;;;15.70;99.90;;;;;;5027024;28;20037;-50
2021/09/22 09:16:39;;;;;;;13.30;4.18;;;15.80;99.90;;;;;;5011767;28;20113;-49
2021/09/22 09:19:23;;;;;;;14.75;2.92;;;15.90;99.90;;;;;;5012231;28;20030;-55
2021/09/22 09:22:09;;;;;;;11.75;2.50;;;16.00;99.90;;;;;;5012561;28;20414;-52
2021/09/22 09:24:37;;;;;;;9.88;2.38;;;16.00;99.90;;;;;;5012535;28;20046;-53
2021/09/22 09:27:23;;;;;;;16.42;2.80;;;16.00;99.90;;;;;;5012503;28;20468;-52
2021/09/22 09:29:55;;;;;;;18.60;2.92;;;15.90;99.90;;;;;;5012276;28;20036;-54
2021/09/22 09:32:25;;;;;;;15.25;3.33;;;16.00;99.90;;;;;;5011433;28;20549;-53
2021/09/22 09:35:06;;;;;;;14.90;3.40;;;15.90;99.90;;;;;;5012216;28;20029;-54
2021/09/22 09:37:37;;;;;;;10.93;2.03;;;15.80;99.90;;;;;;5012521;28;20022;-52
2021/09/22 09:40:25;;;;;;;11.70;2.70;;;15.80;99.90;;;;;;5012422;28;20350;-54
2021/09/22 09:43:02;;;;;;;11.13;3.42;;;15.80;99.90;;;;;;5012292;28;20401;-51
2021/09/22 09:45:43;;;;;;;18.48;2.67;;;15.80;99.90;;;;;;5011245;28;20025;-52
2021/09/22 09:48:12;;;;;;;13.68;2.72;;;15.80;99.90;;;;;;5012156;28;20030;-52
2021/09/22 09:50:50;;;;;;;11.88;3.38;;;15.80;99.90;;;;;;5012251;28;20391;-55
2021/09/22 09:53:27;;;;;;;21.02;3.83;;;15.80;99.90;;;;;;5015737;28;20033;-55
2021/09/22 09:55:57;;;;;;;12.50;3.05;;;15.90;99.90;;;;;;5015875;28;20017;-56
2021/09/22 09:58:27;;;;;;;9.52;2.42;;;16.00;99.90;;;;;;5015603;28;20072;-52
2021/09/22 10:00:56;;;;;;;9.93;3.22;;;16.10;99.90;;;;;;5014826;28;20362;-56
2021/09/22 10:03:23;;;;;;;12.18;2.95;;;16.30;99.90;;;;;;5015638;28;20117;-54
2021/09/22 10:05:51;;;;;;;12.55;2.63;;;16.50;99.90;;;;;;5015250;28;20046;-55
2021/09/22 10:08:20;;;;;;;13.52;3.00;;;16.70;99.90;;;;;;5015403;28;20478;-50
2021/09/22 10:10:49;;;;;;;13.95;3.08;;;16.80;99.90;;;;;;5019168;28;20041;-55
2021/09/22 10:13:16;;;;;;;11.23;3.20;;;17.00;99.90;;;;;;5035350;28;20554;-55
2021/09/22 10:15:44;;;;;;;7.20;2.33;;;16.90;99.90;;;;;;5015319;28;20493;-53
2021/09/22 10:18:11;;;;;;;8.98;2.53;;;16.90;99.90;;;;;;5015368;28;20022;-55
2021/09/22 10:20:38;;;;;;;7.95;2.53;;;17.00;99.90;;;;;;5013767;28;20037;-54
2021/09/22 10:23:05;;;;;;;11.75;3.33;;;17.10;99.90;;;;;;5015348;28;20041;-53
2021/09/22 10:25:31;;;;;;;9.70;2.25;;;17.10;99.90;;;;;;5015138;28;20030;-54
2021/09/22 10:27:57;;;;;;;11.52;2.88;;;17.20;99.90;;;;;;5015333;28;20319;-54
2021/09/22 10:30:37;;;;;;;11.13;3.35;;;17.30;99.90;;;;;;5014023;28;20033;-54
2021/09/22 10:33:03;;;;;;;7.40;2.42;;;17.40;99.90;;;;;;5015054;28;20025;-57
2021/09/22 10:35:29;;;;;;;9.60;2.50;;;17.50;99.90;;;;;;5014844;28;20026;-54
2021/09/22 10:37:57;;;;;;;11.18;2.67;;;17.40;99.90;;;;;;5015192;28;20096;-52
2021/09/22 10:40:47;;;;;;;5.97;2.60;;;17.30;99.90;;;;;;5014867;28;20112;-55
2021/09/22 10:43:21;;;;;;;11.48;2.70;;;17.30;99.90;;;;;;5012003;28;20038;-54
2021/09/22 10:46:10;;;;;;;9.63;2.25;;;17.30;99.90;;;;;;5013933;28;20057;-56
2021/09/22 10:48:57;;;;;;;17.35;2.95;;;17.30;99.90;;;;;;5014932;28;20081;-56
2021/09/22 10:51:34;;;;;;;8.50;2.15;;;17.30;99.90;;;;;;5010790;28;20145;-56
2021/09/22 10:54:12;;;;;;;8.73;2.45;;;17.30;99.90;;;;;;5014600;28;20022;-52
2021/09/22 10:56:48;;;;;;;9.43;2.10;;;17.30;99.90;;;;;;5014705;28;20080;-55
2021/09/22 10:59:27;;;;;;;;;;;17.40;99.90;;;;;;5014914;28;20037;-53
2021/09/22 11:01:52;;;;;;;12.35;2.30;;;17.40;99.90;;;;;;5013446;28;19905;-51
2021/09/22 11:04:18;;;;;;;9.98;2.25;;;17.50;99.90;;;;;;5013591;28;20026;-53
2021/09/22 11:06:44;;;;;;;9.32;2.20;;;17.50;99.90;;;;;;5014257;28;20046;-56
2021/09/22 11:09:22;;;;;;;12.07;2.65;;;17.60;99.90;;;;;;5014260;28;20105;-53
2021/09/22 11:12:00;;;;;;;9.23;2.33;;;17.70;99.90;;;;;;5026809;28;20079;-53
2021/09/22 11:14:32;;;;;;;7.18;1.77;;;17.70;99.90;;;;;;5025358;28;20358;-53
2021/09/22 11:17:00;;;;;;;12.68;2.80;;;17.80;99.90;;;;;;5013365;28;20026;-57
2021/09/22 11:19:27;;;;;;;10.40;2.67;;;17.80;99.90;;;;;;5022115;28;20029;-53
2021/09/22 11:21:53;;;;;;;7.45;2.13;;;17.80;99.90;;;;;;5033690;28;20040;-51
2021/09/22 11:24:22;;;;;;;7.40;2.40;;;17.80;99.90;;;;;;5033563;28;20061;-55
2021/09/22 11:26:52;;;;;;;11.60;2.78;;;17.80;99.90;;;;;;5033746;28;20108;-51
2021/09/22 11:29:29;;;;;;;9.68;2.40;;;17.60;99.90;;;;;;5033140;28;20516;-54
2021/09/22 11:31:55;;;;;;;12.73;2.75;;;17.40;99.90;;;;;;5033004;28;20469;-54
2021/09/22 11:34:30;;;;;;;13.48;2.78;;;17.40;99.90;;;;;;5033558;28;20033;-50
2021/09/22 11:37:09;;;;;;;9.15;2.38;;;17.30;99.90;;;;;;5033619;28;20087;-56
2021/09/22 11:39:36;;;;;;;6.90;2.05;;;17.30;99.90;;;;;;5033518;28;20081;-50
2021/09/22 11:42:03;;;;;;;10.50;2.25;;;17.30;99.90;;;;;;5032316;28;20025;-50
2021/09/22 11:44:32;;;;;;;10.07;2.78;;;17.30;99.90;;;;;;5033388;28;20032;-53
2021/09/22 11:46:59;;;;;;;9.60;2.75;;;17.30;99.90;;;;;;5032613;28;20028;-52
2021/09/22 11:49:36;;;;;;;12.18;2.20;;;17.40;99.90;;;;;;4973922;28;20368;-51
2021/09/22 11:52:12;;;;;;;17.98;2.80;;;17.60;99.90;;;;;;5033330;28;20037;-56
2021/09/22 11:54:44;;;;;;;7.60;2.35;;;17.60;99.90;;;;;;5033283;28;20380;-55
2021/09/22 11:57:11;;;;;;;14.68;3.08;;;17.80;99.90;;;;;;5033385;28;20025;-52
2021/09/22 11:59:38;;;;;;;7.78;2.65;;;17.90;99.90;;;;;;5033194;28;20097;-55
2021/09/22 12:02:05;;;;;;;6.22;1.90;;;18.10;99.90;;;;;;5032459;28;20068;-56
2021/09/22 12:04:42;;;;;;;7.10;2.10;;;18.10;99.90;;;;;;5033041;28;20117;-52
2021/09/22 12:07:08;;;;;;;7.47;2.08;;;18.20;99.90;;;;;;5032962;28;20046;-53
2021/09/22 12:09:47;;;;;;;6.90;2.60;;;18.30;99.90;;;;;;5032836;28;20530;-55
2021/09/22 12:12:20;;;;;;;9.43;2.10;;;18.40;99.90;;;;;;5031744;28;20049;-56
2021/09/22 12:14:53;;;;;;;8.93;2.45;;;18.50;99.90;;;;;;5021361;28;20385;-53
2021/09/22 12:17:22;;;;;;;7.57;2.35;;;18.60;99.90;;;;;;5012212;28;20052;-55
2021/09/22 12:19:49;;;;;;;7.75;2.30;;;18.70;99.90;;;;;;5013096;28;20038;-56
2021/09/22 12:22:21;;;;;;;12.07;3.05;;;18.80;99.90;;;;;;5013037;28;20362;-56
2021/09/22 12:24:47;;;;;;;8.30;2.42;;;18.90;99.90;;;;;;5013124;28;20022;-53
2021/09/22 12:27:21;;;;;;;9.45;1.98;;;18.90;99.90;;;;;;5013159;28;20096;-55
2021/09/22 12:29:53;;;;;;;7.45;2.38;;;19.10;99.90;;;;;;5012762;28;20036;-54
2021/09/22 12:32:19;;;;;;;7.30;2.45;;;19.10;99.90;;;;;;5012079;28;20485;-53
2021/09/22 12:34:45;;;;;;;9.38;1.95;;;19.10;99.00;;;;;;5012967;28;20109;-55
2021/09/22 12:37:20;;;;;;;7.22;2.17;;;19.10;99.90;;;;;;5013026;28;20054;-55
2021/09/22 12:39:55;;;;;;;9.23;2.20;;;19.20;98.30;;;;;;5012789;28;20393;-56
2021/09/22 12:42:21;;;;;;;8.52;2.55;;;19.20;97.70;;;;;;5012736;28;20025;-53